createdAt,value
2022-11-07T05:22:14.388Z,0.00
2022-11-07T05:22:36.544Z,0.00
2022-11-07T05:23:20.428Z,0.00
2022-11-07T05:24:19.108Z,0.00
2022-11-07T05:25:19.105Z,0.00
2022-11-07T05:26:19.089Z,0.00
2022-11-07T05:27:19.077Z,0.00
2022-11-07T05:28:23.739Z,0.00
2022-11-07T05:29:20.044Z,0.00
2022-11-07T05:30:19.024Z,0.00
2022-11-07T05:31:19.066Z,0.00
2022-11-07T05:32:18.996Z,0.00
2022-11-07T05:33:18.991Z,0.00
2022-11-07T05:34:18.968Z,0.00
2022-11-07T05:35:18.973Z,0.00
2022-11-07T05:36:19.246Z,0.00
2022-11-07T05:37:18.938Z,0.00
2022-11-07T05:38:18.919Z,2.00
2022-11-07T05:39:18.917Z,2.00
2022-11-07T05:40:18.900Z,0.00
2022-11-07T05:41:18.893Z,0.00
2022-11-07T05:42:18.859Z,0.00
2022-11-07T05:43:18.909Z,0.00
2022-11-07T05:44:18.843Z,4.00
2022-11-07T05:45:18.828Z,2.00
2022-11-07T05:46:18.818Z,6.00
2022-11-07T05:47:18.810Z,5.00
2022-11-07T05:48:18.780Z,3.00
2022-11-07T05:49:18.780Z,5.00
2022-11-07T05:50:18.779Z,13.00
2022-11-07T05:51:18.760Z,16.00
2022-11-07T05:52:18.725Z,16.00
2022-11-07T05:53:19.000Z,10.00
2022-11-07T05:54:18.701Z,21.00
2022-11-07T05:55:18.701Z,32.00
2022-11-07T05:56:18.681Z,30.00
2022-11-07T05:57:18.680Z,37.00
2022-11-07T05:58:18.662Z,40.00
2022-11-07T05:59:18.649Z,51.00
2022-11-07T06:00:18.626Z,65.00
2022-11-07T06:01:18.623Z,64.00
2022-11-07T06:02:19.021Z,73.00
2022-11-07T06:03:19.199Z,91.00
2022-11-07T06:04:18.588Z,105.00
2022-11-07T06:05:23.910Z,113.00
2022-11-07T06:06:19.554Z,118.00
2022-11-07T06:07:18.535Z,136.00
2022-11-07T06:08:18.524Z,136.00
2022-11-07T06:09:18.504Z,142.00
2022-11-07T06:10:18.507Z,161.00
2022-11-07T06:11:18.514Z,189.00
2022-11-07T06:12:18.501Z,200.00
2022-11-07T06:13:19.042Z,233.00
2022-11-07T06:14:18.437Z,258.00
2022-11-07T06:15:18.432Z,287.00
2022-11-07T06:16:18.445Z,308.00
2022-11-07T06:17:18.396Z,336.00
2022-11-07T06:18:19.344Z,357.00
2022-11-07T06:19:18.366Z,391.00
2022-11-07T06:20:18.366Z,412.00
2022-11-07T06:21:18.368Z,439.00
2022-11-07T06:22:18.360Z,465.00
2022-11-07T06:23:18.701Z,484.00
2022-11-07T06:24:18.308Z,508.00
2022-11-07T06:25:18.303Z,530.00
2022-11-07T06:26:18.279Z,541.00
2022-11-07T06:27:18.280Z,545.00
2022-11-07T06:28:18.248Z,559.00
2022-11-07T06:29:18.249Z,582.00
2022-11-07T06:30:18.229Z,599.00
2022-11-07T06:31:18.216Z,627.00
2022-11-07T06:32:18.199Z,644.00
2022-11-07T06:33:18.907Z,679.00
2022-11-07T06:34:18.178Z,740.00
2022-11-07T06:35:18.181Z,810.00
2022-11-07T06:36:18.150Z,869.00
2022-11-07T06:37:18.990Z,914.00
2022-11-07T06:38:18.126Z,953.00
2022-11-07T06:39:18.108Z,963.00
2022-11-07T06:40:18.101Z,1008.00
2022-11-07T06:41:18.091Z,1085.00
2022-11-07T06:42:18.071Z,1142.00
2022-11-07T06:43:18.692Z,1188.00
2022-11-07T06:44:18.052Z,1256.00
2022-11-07T06:45:18.032Z,1310.00
2022-11-07T06:46:18.024Z,1324.00
2022-11-07T06:47:18.176Z,1353.00
2022-11-07T06:48:17.990Z,1386.00
2022-11-07T06:49:17.972Z,1400.00
2022-11-07T06:50:17.963Z,1394.00
2022-11-07T06:51:17.952Z,1395.00
2022-11-07T06:52:17.934Z,1416.00
2022-11-07T06:53:18.159Z,1457.00
2022-11-07T06:54:17.912Z,1486.00
2022-11-07T06:55:17.914Z,1546.00
2022-11-07T06:56:18.844Z,1623.00
2022-11-07T06:57:17.885Z,1703.00
2022-11-07T06:58:17.855Z,1748.00
2022-11-07T06:59:17.836Z,1809.00
2022-11-07T07:00:17.835Z,1880.00
2022-11-07T07:01:17.867Z,1953.00
2022-11-07T07:02:37.291Z,2021.00
2022-11-07T07:03:19.075Z,2060.00
2022-11-07T07:04:17.777Z,2139.00
2022-11-07T07:05:21.102Z,2207.00
2022-11-07T07:06:17.747Z,2266.00
2022-11-07T07:07:17.747Z,2304.00
2022-11-07T07:08:17.727Z,2353.00
2022-11-07T07:09:17.718Z,2413.00
2022-11-07T07:10:17.699Z,2466.00
2022-11-07T07:11:17.699Z,2516.00
2022-11-07T07:12:18.619Z,2590.00
2022-11-07T07:13:18.143Z,2627.00
2022-11-07T07:14:17.650Z,2681.00
2022-11-07T07:15:17.656Z,2722.00
2022-11-07T07:16:17.619Z,2775.00
2022-11-07T07:17:17.609Z,2840.00
2022-11-07T07:18:18.755Z,2890.00
2022-11-07T07:19:17.575Z,2904.00
2022-11-07T07:20:17.581Z,2909.00
2022-11-07T07:21:17.781Z,2902.00
2022-11-07T07:22:17.530Z,2881.00
2022-11-07T07:23:17.799Z,2882.00
2022-11-07T07:24:17.512Z,2899.00
2022-11-07T07:25:17.762Z,2921.00
2022-11-07T07:26:17.484Z,2964.00
2022-11-07T07:27:17.473Z,2999.00
2022-11-07T07:28:17.501Z,3010.00
2022-11-07T07:29:17.453Z,2996.00
2022-11-07T07:30:17.450Z,2965.00
2022-11-07T07:31:17.423Z,2916.00
2022-11-07T07:32:17.392Z,2924.00
2022-11-07T07:33:17.836Z,2941.00
2022-11-07T07:34:17.384Z,2935.00
2022-11-07T07:35:17.374Z,2916.00
2022-11-07T07:36:20.780Z,2915.00
2022-11-07T07:37:17.354Z,2916.00
2022-11-07T07:38:17.324Z,2906.00
2022-11-07T07:39:17.306Z,2953.00
2022-11-07T07:40:17.308Z,3008.00
2022-11-07T07:41:17.280Z,3083.00
2022-11-07T07:42:17.275Z,3156.00
2022-11-07T07:43:17.562Z,3204.00
2022-11-07T07:44:17.248Z,3234.00
2022-11-07T07:45:17.249Z,3276.00
2022-11-07T07:46:17.216Z,3273.00
2022-11-07T07:47:17.196Z,3290.00
2022-11-07T07:48:17.188Z,3319.00
2022-11-07T07:49:17.177Z,3351.00
2022-11-07T07:50:17.169Z,3393.00
2022-11-07T07:51:18.091Z,3409.00
2022-11-07T07:52:17.191Z,3393.00
2022-11-07T07:53:17.347Z,3335.00
2022-11-07T07:54:17.178Z,3260.00
2022-11-07T07:55:17.101Z,3219.00
2022-11-07T07:56:17.079Z,3192.00
2022-11-07T07:57:17.322Z,3148.00
2022-11-07T07:58:17.151Z,3138.00
2022-11-07T07:59:17.039Z,3103.00
2022-11-07T08:00:17.039Z,3111.00
2022-11-07T08:01:18.027Z,3249.00
2022-11-07T08:02:18.021Z,3304.00
2022-11-07T08:03:17.240Z,3389.00
2022-11-07T08:04:16.979Z,3488.00
2022-11-07T08:05:16.981Z,3619.00
2022-11-07T08:06:16.940Z,3699.00
2022-11-07T08:07:16.941Z,3769.00
2022-11-07T08:08:16.931Z,3887.00
2022-11-07T08:09:16.901Z,3927.00
2022-11-07T08:10:40.363Z,3901.00
2022-11-07T08:11:17.881Z,3868.00
2022-11-07T08:12:16.883Z,3812.00
2022-11-07T08:13:17.056Z,3861.00
2022-11-07T08:14:16.843Z,3850.00
2022-11-07T08:15:16.834Z,3861.00
2022-11-07T08:16:16.842Z,3822.00
2022-11-07T08:17:16.805Z,3805.00
2022-11-07T08:18:17.742Z,3797.00
2022-11-07T08:19:16.764Z,3752.00
2022-11-07T08:20:16.775Z,3736.00
2022-11-07T08:21:16.745Z,3690.00
2022-11-07T08:22:16.736Z,3595.00
2022-11-07T08:23:17.106Z,3526.00
2022-11-07T08:24:16.715Z,3592.00
2022-11-07T08:25:16.705Z,3287.00
2022-11-07T08:26:16.809Z,3188.00
2022-11-07T08:27:16.691Z,3032.00
2022-11-07T08:28:16.697Z,3014.00
2022-11-07T08:29:16.645Z,2847.00
2022-11-07T08:30:18.133Z,2742.00
2022-11-07T08:31:16.609Z,2755.00
2022-11-07T08:32:16.610Z,2632.00
2022-11-07T08:33:16.899Z,2665.00
2022-11-07T08:34:16.598Z,2712.00
2022-11-07T08:35:16.592Z,2842.00
2022-11-07T08:36:16.575Z,2903.00
2022-11-07T08:37:16.532Z,2963.00
2022-11-07T08:38:16.534Z,3059.00
2022-11-07T08:39:16.510Z,3182.00
2022-11-07T08:40:16.794Z,3334.00
2022-11-07T08:41:21.802Z,3523.00
2022-11-07T08:42:17.471Z,3640.00
2022-11-07T08:43:16.627Z,3719.00
2022-11-07T08:44:16.462Z,3679.00
2022-11-07T08:45:16.460Z,3704.00
2022-11-07T08:46:16.422Z,3794.00
2022-11-07T08:47:16.405Z,3801.00
2022-11-07T08:48:16.401Z,3807.00
2022-11-07T08:49:16.381Z,3800.00
2022-11-07T08:50:16.375Z,3631.00
2022-11-07T08:51:16.360Z,3641.00
2022-11-07T08:52:16.373Z,3574.00
2022-11-07T08:53:16.533Z,3533.00
2022-11-07T08:54:16.969Z,3555.00
2022-11-07T08:55:16.400Z,3550.00
2022-11-07T08:56:16.296Z,3578.00
2022-11-07T08:57:16.266Z,3565.00
2022-11-07T08:58:16.272Z,3580.00
2022-11-07T08:59:16.263Z,3560.00
2022-11-07T09:00:16.262Z,3548.00
2022-11-07T09:01:16.252Z,3710.00
2022-11-07T09:03:43.467Z,3522.00
2022-11-07T09:04:17.257Z,3517.00
2022-11-07T09:05:16.167Z,3528.00
2022-11-07T09:06:16.164Z,3719.00
2022-11-07T09:07:16.140Z,3813.00
2022-11-07T09:08:16.141Z,3881.00
2022-11-07T09:09:17.078Z,3936.00
2022-11-07T09:10:16.112Z,3997.00
2022-11-07T09:11:16.117Z,4177.00
2022-11-07T09:12:16.088Z,4272.00
2022-11-07T09:13:16.304Z,4162.00
2022-11-07T09:14:16.066Z,4227.00
2022-11-07T09:15:16.049Z,4513.00
2022-11-07T09:16:16.029Z,4708.00
2022-11-07T09:17:16.037Z,4656.00
2022-11-07T09:18:15.990Z,4374.00
2022-11-07T09:19:15.989Z,4336.00
2022-11-07T09:20:15.976Z,4548.00
2022-11-07T09:21:21.713Z,4542.00
2022-11-07T09:22:16.951Z,4291.00
2022-11-07T09:23:16.241Z,4231.00
2022-11-07T09:24:16.904Z,4367.00
2022-11-07T09:25:15.911Z,4361.00
2022-11-07T09:26:15.904Z,4236.00
2022-11-07T09:27:16.836Z,4248.00
2022-11-07T09:28:16.833Z,4251.00
2022-11-07T09:29:15.862Z,4258.00
2022-11-07T09:30:16.803Z,4200.00
2022-11-07T09:31:15.832Z,4062.00
2022-11-07T09:32:42.715Z,4007.00
2022-11-07T09:33:18.019Z,4310.00
2022-11-07T09:34:15.805Z,4314.00
2022-11-07T09:35:15.793Z,4596.00
2022-11-07T09:36:15.772Z,4828.00
2022-11-07T09:37:15.747Z,4769.00
2022-11-07T09:38:15.736Z,4382.00
2022-11-07T09:39:15.735Z,4655.00
2022-11-07T09:40:15.717Z,4663.00
2022-11-07T09:41:16.645Z,4528.00
2022-11-07T09:42:15.685Z,4462.00
2022-11-07T09:43:15.831Z,4415.00
2022-11-07T09:44:15.663Z,4407.00
2022-11-07T09:45:15.661Z,4403.00
2022-11-07T09:46:15.731Z,4444.00
2022-11-07T09:47:15.618Z,4451.00
2022-11-07T09:48:15.619Z,4471.00
2022-11-07T09:49:15.607Z,4451.00
2022-11-07T09:50:15.578Z,4377.00
2022-11-07T09:51:15.569Z,4454.00
2022-11-07T09:52:15.551Z,4488.00
2022-11-07T09:53:15.796Z,4511.00
2022-11-07T09:54:15.529Z,4552.00
2022-11-07T09:55:15.510Z,4465.00
2022-11-07T09:56:15.516Z,4380.00
2022-11-07T09:57:15.481Z,4269.00
2022-11-07T09:58:16.445Z,4247.00
2022-11-07T09:59:15.574Z,4125.00
2022-11-07T10:00:15.449Z,4035.00
2022-11-07T10:01:16.627Z,4119.00
2022-11-07T10:02:16.483Z,4036.00
2022-11-07T10:03:15.681Z,4015.00
2022-11-07T10:04:24.733Z,4042.00
2022-11-07T10:05:16.382Z,3906.00
2022-11-07T10:06:16.687Z,3875.00
2022-11-07T10:07:16.154Z,3855.00
2022-11-07T10:08:15.346Z,3731.00
2022-11-07T10:09:15.339Z,3868.00
2022-11-07T10:10:16.345Z,3815.00
2022-11-07T10:11:15.293Z,3533.00
2022-11-07T10:12:15.295Z,3524.00
2022-11-07T10:13:15.422Z,3496.00
2022-11-07T10:14:15.284Z,3853.00
2022-11-07T10:15:15.254Z,3984.00
2022-11-07T10:16:15.239Z,4081.00
2022-11-07T10:17:15.217Z,3985.00
2022-11-07T10:18:15.226Z,3993.00
2022-11-07T10:19:15.249Z,4229.00
2022-11-07T10:20:15.188Z,3788.00
2022-11-07T10:21:37.259Z,3908.00
2022-11-07T10:22:16.156Z,3739.00
2022-11-07T10:23:15.524Z,4251.00
2022-11-07T10:24:15.137Z,4426.00
2022-11-07T10:25:15.115Z,4499.00
2022-11-07T10:26:15.109Z,4500.00
2022-11-07T10:27:15.090Z,4460.00
2022-11-07T10:28:15.119Z,4506.00
2022-11-07T10:29:15.339Z,4427.00
2022-11-07T10:30:15.069Z,4259.00
2022-11-07T10:31:15.030Z,4625.00
2022-11-07T10:32:15.029Z,4619.00
2022-11-07T10:33:15.366Z,4526.00
2022-11-07T10:34:15.006Z,4560.00
2022-11-07T10:35:14.988Z,4521.00
2022-11-07T10:36:14.980Z,4198.00
2022-11-07T10:37:14.979Z,4312.00
2022-11-07T10:38:15.001Z,4373.00
2022-11-07T10:39:14.935Z,4476.00
2022-11-07T10:40:14.934Z,4701.00
2022-11-07T10:41:14.912Z,5112.00
2022-11-07T10:42:14.904Z,4879.00
2022-11-07T10:43:15.141Z,5082.00
2022-11-07T10:44:14.898Z,4910.00
2022-11-07T10:45:14.862Z,5133.00
2022-11-07T10:46:15.815Z,5044.00
2022-11-07T10:47:14.825Z,4874.00
2022-11-07T10:48:15.439Z,4503.00
2022-11-07T10:49:14.822Z,4763.00
2022-11-07T10:50:14.795Z,4952.00
2022-11-07T10:51:14.776Z,5012.00
2022-11-07T10:52:14.793Z,5001.00
2022-11-07T10:53:14.756Z,5055.00
2022-11-07T10:54:20.657Z,5068.00
2022-11-07T10:55:15.731Z,5141.00
2022-11-07T10:56:14.727Z,5186.00
2022-11-07T10:57:14.717Z,5274.00
2022-11-07T10:58:14.896Z,5308.00
2022-11-07T10:59:14.677Z,5371.00
2022-11-07T11:00:14.667Z,5416.00
2022-11-07T11:01:14.677Z,5447.00
2022-11-07T11:02:14.728Z,5531.00
2022-11-07T11:03:15.568Z,5559.00
2022-11-07T11:04:14.621Z,5597.00
2022-11-07T11:05:14.599Z,5588.00
2022-11-07T11:06:14.591Z,5564.00
2022-11-07T11:07:14.590Z,5538.00
2022-11-07T11:08:14.889Z,5513.00
2022-11-07T11:09:15.521Z,5459.00
2022-11-07T11:10:15.521Z,5413.00
2022-11-07T11:11:14.530Z,5333.00
2022-11-07T11:12:14.527Z,5274.00
2022-11-07T11:13:14.502Z,5220.00
2022-11-07T11:14:14.500Z,5176.00
2022-11-07T11:15:14.473Z,5159.00
2022-11-07T11:16:14.466Z,5155.00
2022-11-07T11:17:14.498Z,5172.00
2022-11-07T11:18:14.743Z,5146.00
2022-11-07T11:19:14.414Z,5131.00
2022-11-07T11:20:14.425Z,5104.00
2022-11-07T11:21:14.402Z,5066.00
2022-11-07T11:22:14.395Z,5009.00
2022-11-07T11:23:14.822Z,4953.00
2022-11-07T11:24:14.355Z,4880.00
2022-11-07T11:25:14.355Z,4805.00
2022-11-07T11:26:14.339Z,4719.00
2022-11-07T11:27:14.325Z,4621.00
2022-11-07T11:28:14.597Z,4528.00
2022-11-07T11:29:14.298Z,4481.00
2022-11-07T11:30:14.279Z,4461.00
2022-11-07T11:31:14.267Z,4437.00
2022-11-07T11:32:14.268Z,4375.00
2022-11-07T11:33:14.783Z,4302.00
2022-11-07T11:34:14.229Z,4283.00
2022-11-07T11:35:14.218Z,4274.00
2022-11-07T11:36:14.199Z,4223.00
2022-11-07T11:37:14.212Z,4197.00
2022-11-07T11:38:14.182Z,4158.00
2022-11-07T11:39:14.166Z,4166.00
2022-11-07T11:40:14.226Z,4172.00
2022-11-07T11:41:14.132Z,4159.00
2022-11-07T11:42:14.138Z,4161.00
2022-11-07T11:43:14.382Z,4195.00
2022-11-07T11:44:14.093Z,4239.00
2022-11-07T11:45:14.081Z,4289.00
2022-11-07T11:46:14.072Z,4340.00
2022-11-07T11:47:14.073Z,4389.00
2022-11-07T11:48:14.042Z,4406.00
2022-11-07T11:49:14.036Z,4395.00
2022-11-07T11:50:14.025Z,4344.00
2022-11-07T11:51:14.013Z,4224.00
2022-11-07T11:52:14.012Z,4039.00
2022-11-07T11:53:14.229Z,3764.00
2022-11-07T11:54:13.975Z,3487.00
2022-11-07T11:55:14.932Z,3198.00
2022-11-07T11:56:13.985Z,2979.00
2022-11-07T11:57:13.980Z,2866.00
2022-11-07T11:58:13.926Z,2837.00
2022-11-07T11:59:13.921Z,2908.00
2022-11-07T12:00:13.985Z,3075.00
2022-11-07T12:01:13.944Z,3229.00
2022-11-07T12:02:13.913Z,3261.00
2022-11-07T12:03:14.163Z,3199.00
2022-11-07T12:04:13.859Z,3096.00
2022-11-07T12:05:13.828Z,2999.00
2022-11-07T12:06:13.809Z,2920.00
2022-11-07T12:07:13.810Z,2868.00
2022-11-07T12:08:13.923Z,2817.00
2022-11-07T12:09:17.303Z,2774.00
2022-11-07T12:10:13.786Z,2750.00
2022-11-07T12:11:13.760Z,2706.00
2022-11-07T12:12:13.740Z,2651.00
2022-11-07T12:13:13.948Z,2569.00
2022-11-07T12:14:13.720Z,2495.00
2022-11-07T12:15:13.698Z,2403.00
2022-11-07T12:16:13.681Z,2309.00
2022-11-07T12:17:13.671Z,2206.00
2022-11-07T12:18:13.748Z,2104.00
2022-11-07T12:19:14.600Z,1987.00
2022-11-07T12:20:13.708Z,1929.00
2022-11-07T12:21:13.623Z,1881.00
2022-11-07T12:22:13.612Z,1881.00
2022-11-07T12:23:13.793Z,1913.00
2022-11-07T12:24:13.574Z,1959.00
2022-11-07T12:25:13.579Z,2006.00
2022-11-07T12:26:13.545Z,2071.00
2022-11-07T12:27:13.575Z,2125.00
2022-11-07T12:28:13.538Z,2172.00
2022-11-07T12:29:13.516Z,2200.00
2022-11-07T12:30:13.567Z,2218.00
2022-11-07T12:31:13.497Z,2205.00
2022-11-07T12:32:13.476Z,2174.00
2022-11-07T12:33:13.700Z,2171.00
2022-11-07T12:34:14.407Z,2173.00
2022-11-07T12:35:13.447Z,2214.00
2022-11-07T12:36:13.428Z,2260.00
2022-11-07T12:37:13.417Z,2332.00
2022-11-07T12:38:13.413Z,2412.00
2022-11-07T12:39:13.396Z,2530.00
2022-11-07T12:40:13.368Z,2642.00
2022-11-07T12:41:13.369Z,2762.00
2022-11-07T12:42:13.340Z,2838.00
2022-11-07T12:43:13.584Z,2896.00
2022-11-07T12:44:13.321Z,2930.00
2022-11-07T12:45:13.318Z,3005.00
2022-11-07T12:46:13.332Z,3067.00
2022-11-07T12:47:14.270Z,3160.00
2022-11-07T12:48:13.656Z,3333.00
2022-11-07T12:49:13.269Z,3507.00
2022-11-07T12:50:13.242Z,3598.00
2022-11-07T12:51:13.262Z,3638.00
2022-11-07T12:52:13.233Z,3667.00
2022-11-07T12:53:13.325Z,3685.00
2022-11-07T12:54:16.516Z,3667.00
2022-11-07T12:55:13.183Z,3604.00
2022-11-07T12:56:13.257Z,3502.00
2022-11-07T12:57:13.170Z,3397.00
2022-11-07T12:58:13.133Z,3365.00
2022-11-07T12:59:13.144Z,3385.00
2022-11-07T13:00:13.107Z,3385.00
2022-11-07T13:01:13.157Z,3422.00
2022-11-07T13:02:13.236Z,3399.00
2022-11-07T13:03:13.227Z,3329.00
2022-11-07T13:04:14.017Z,3263.00
2022-11-07T13:05:13.046Z,3215.00
2022-11-07T13:06:13.047Z,3196.00
2022-11-07T13:07:13.034Z,3211.00
2022-11-07T13:08:13.025Z,3223.00
2022-11-07T13:09:12.998Z,3218.00
2022-11-07T13:10:12.988Z,3230.00
2022-11-07T13:11:12.998Z,3237.00
2022-11-07T13:12:12.958Z,3298.00
2022-11-07T13:13:13.085Z,3337.00
2022-11-07T13:14:12.937Z,3287.00
2022-11-07T13:15:12.933Z,3082.00
2022-11-07T13:16:16.346Z,2819.00
2022-11-07T13:17:12.901Z,2552.00
2022-11-07T13:18:12.881Z,2334.00
2022-11-07T13:19:12.871Z,2141.00
2022-11-07T13:20:12.851Z,1976.00
2022-11-07T13:21:12.852Z,1851.00
2022-11-07T13:22:12.829Z,1760.00
2022-11-07T13:23:12.877Z,1674.00
2022-11-07T13:24:12.802Z,1631.00
2022-11-07T13:25:16.659Z,1590.00
2022-11-07T13:26:45.151Z,1547.00
2022-11-07T13:27:13.774Z,1521.00
2022-11-07T13:28:12.750Z,1490.00
2022-11-07T13:29:12.749Z,1461.00
2022-11-07T13:30:12.734Z,1452.00
2022-11-07T13:31:12.715Z,1458.00
2022-11-07T13:32:12.706Z,1503.00
2022-11-07T13:33:12.906Z,1534.00
2022-11-07T13:34:12.716Z,1514.00
2022-11-07T13:35:12.702Z,1467.00
2022-11-07T13:36:12.656Z,1479.00
2022-11-07T13:37:12.638Z,1493.00
2022-11-07T13:38:12.664Z,1536.00
2022-11-07T13:39:12.616Z,1585.00
2022-11-07T13:40:12.617Z,1599.00
2022-11-07T13:41:12.600Z,1491.00
2022-11-07T13:42:12.582Z,1347.00
2022-11-07T13:43:12.572Z,1262.00
2022-11-07T13:44:12.555Z,1252.00
2022-11-07T13:45:12.553Z,1268.00
2022-11-07T13:46:12.519Z,1334.00
2022-11-07T13:47:12.511Z,1453.00
2022-11-07T13:48:12.489Z,1550.00
2022-11-07T13:49:12.499Z,1588.00
2022-11-07T13:50:12.477Z,1583.00
2022-11-07T13:51:12.461Z,1566.00
2022-11-07T13:52:12.451Z,1520.00
2022-11-07T13:53:12.433Z,1467.00
2022-11-07T13:54:13.392Z,1417.00
2022-11-07T13:55:12.411Z,1369.00
2022-11-07T13:56:12.392Z,1325.00
2022-11-07T13:57:12.384Z,1308.00
2022-11-07T13:58:12.384Z,1314.00
2022-11-07T13:59:12.372Z,1353.00
2022-11-07T14:00:12.403Z,1412.00
2022-11-07T14:01:12.434Z,1489.00
2022-11-07T14:02:12.398Z,1553.00
2022-11-07T14:03:12.304Z,1603.00
2022-11-07T14:04:12.294Z,1609.00
2022-11-07T14:05:18.864Z,1605.00
2022-11-07T14:06:13.266Z,1552.00
2022-11-07T14:07:12.257Z,1555.00
2022-11-07T14:08:12.245Z,1570.00
2022-11-07T14:09:13.177Z,1535.00
2022-11-07T14:10:12.237Z,1458.00
2022-11-07T14:11:12.200Z,1365.00
2022-11-07T14:12:12.186Z,1319.00
2022-11-07T14:13:12.186Z,1288.00
2022-11-07T14:14:12.170Z,1201.00
2022-11-07T14:15:12.159Z,1095.00
2022-11-07T14:16:12.127Z,1009.00
2022-11-07T14:17:12.128Z,921.00
2022-11-07T14:18:12.107Z,887.00
2022-11-07T14:19:12.099Z,879.00
2022-11-07T14:20:12.098Z,865.00
2022-11-07T14:21:12.099Z,870.00
2022-11-07T14:22:14.731Z,877.00
2022-11-07T14:23:12.079Z,876.00
2022-11-07T14:24:12.030Z,875.00
2022-11-07T14:25:12.058Z,871.00
2022-11-07T14:26:12.010Z,880.00
2022-11-07T14:27:12.021Z,900.00
2022-11-07T14:28:12.219Z,923.00
2022-11-07T14:29:11.992Z,929.00
2022-11-07T14:30:11.964Z,927.00
2022-11-07T14:31:11.967Z,914.00
2022-11-07T14:32:11.983Z,919.00
2022-11-07T14:33:11.941Z,911.00
2022-11-07T14:34:11.918Z,924.00
2022-11-07T14:35:11.894Z,965.00
2022-11-07T14:36:11.882Z,1003.00
2022-11-07T14:37:11.874Z,1048.00
2022-11-07T14:38:12.108Z,1044.00
2022-11-07T14:39:15.590Z,1040.00
2022-11-07T14:40:11.832Z,1040.00
2022-11-07T14:41:11.815Z,1039.00
2022-11-07T14:42:11.796Z,995.00
2022-11-07T14:43:11.795Z,975.00
2022-11-07T14:44:11.777Z,922.00
2022-11-07T14:45:11.762Z,866.00
2022-11-07T14:46:13.122Z,806.00
2022-11-07T14:47:11.731Z,749.00
2022-11-07T14:48:11.718Z,704.00
2022-11-07T14:49:11.728Z,666.00
2022-11-07T14:50:11.697Z,642.00
2022-11-07T14:51:11.690Z,631.00
2022-11-07T14:52:16.290Z,606.00
2022-11-07T14:53:12.929Z,602.00
2022-11-07T14:54:11.649Z,587.00
2022-11-07T14:55:11.640Z,578.00
2022-11-07T14:56:11.619Z,571.00
2022-11-07T14:57:11.608Z,554.00
2022-11-07T14:58:11.603Z,548.00
2022-11-07T14:59:11.601Z,529.00
2022-11-07T15:00:11.569Z,510.00
2022-11-07T15:01:11.577Z,501.00
2022-11-07T15:02:11.617Z,476.00
2022-11-07T15:03:12.181Z,460.00
2022-11-07T15:04:11.532Z,454.00
2022-11-07T15:05:11.534Z,443.00
2022-11-07T15:06:11.490Z,429.00
2022-11-07T15:07:11.684Z,421.00
2022-11-07T15:08:11.481Z,408.00
2022-11-07T15:09:11.462Z,398.00
2022-11-07T15:10:11.479Z,383.00
2022-11-07T15:11:11.444Z,378.00
2022-11-07T15:12:11.413Z,375.00
2022-11-07T15:13:11.495Z,375.00
2022-11-07T15:14:11.393Z,385.00
2022-11-07T15:15:11.417Z,384.00
2022-11-07T15:16:11.375Z,387.00
2022-11-07T15:17:11.357Z,392.00
2022-11-07T15:18:11.329Z,397.00
2022-11-07T15:19:11.345Z,416.00
2022-11-07T15:20:11.308Z,396.00
2022-11-07T15:21:11.305Z,390.00
2022-11-07T15:22:11.294Z,398.00
2022-11-07T15:23:11.278Z,374.00
2022-11-07T15:24:15.087Z,362.00
2022-11-07T15:25:11.251Z,351.00
2022-11-07T15:26:11.243Z,338.00
2022-11-07T15:27:11.224Z,321.00
2022-11-07T15:28:11.203Z,307.00
2022-11-07T15:29:11.219Z,290.00
2022-11-07T15:30:11.189Z,279.00
2022-11-07T15:31:13.714Z,256.00
2022-11-07T15:32:11.149Z,240.00
2022-11-07T15:33:11.159Z,229.00
2022-11-07T15:34:11.160Z,209.00
2022-11-07T15:35:37.748Z,197.00
2022-11-07T15:36:12.101Z,177.00
2022-11-07T15:37:11.100Z,156.00
2022-11-07T15:38:11.094Z,146.00
2022-11-07T15:39:11.095Z,137.00
2022-11-07T15:40:11.061Z,124.00
2022-11-07T15:41:11.047Z,108.00
2022-11-07T15:42:11.043Z,107.00
2022-11-07T15:43:11.013Z,85.00
2022-11-07T15:44:11.028Z,72.00
2022-11-07T15:45:10.986Z,72.00
2022-11-07T15:46:11.236Z,58.00
2022-11-07T15:47:10.975Z,45.00
2022-11-07T15:48:10.944Z,51.00
2022-11-07T15:49:10.963Z,32.00
2022-11-07T15:50:10.924Z,33.00
2022-11-07T15:51:10.915Z,22.00
2022-11-07T15:52:10.910Z,19.00
2022-11-07T15:53:10.887Z,15.00
2022-11-07T15:54:10.889Z,16.00
2022-11-07T15:55:10.857Z,20.00
2022-11-07T15:56:10.848Z,13.00
2022-11-07T15:57:10.844Z,13.00
2022-11-07T15:58:10.827Z,3.00
2022-11-07T15:59:10.817Z,5.00
2022-11-07T16:00:10.788Z,6.00
2022-11-07T16:01:10.880Z,2.00
2022-11-07T16:02:10.905Z,4.00
2022-11-07T16:03:10.761Z,0.00
2022-11-07T16:04:10.742Z,4.00
2022-11-07T16:05:10.744Z,2.00
2022-11-07T16:06:10.710Z,2.00
2022-11-07T16:07:10.700Z,0.00
2022-11-07T16:08:10.709Z,0.00
2022-11-07T16:09:10.710Z,0.00
2022-11-07T16:10:11.626Z,0.00
2022-11-07T16:11:10.642Z,0.00
2022-11-07T16:12:10.641Z,0.00
2022-11-07T16:13:10.624Z,0.00
2022-11-07T16:14:37.991Z,0.00
2022-11-07T16:15:11.591Z,0.00
2022-11-07T16:16:10.590Z,0.00
2022-11-07T16:17:10.561Z,0.00
2022-11-07T16:18:10.796Z,0.00
2022-11-07T16:19:10.591Z,0.00
2022-11-07T16:20:10.534Z,0.00
2022-11-07T16:21:15.056Z,0.00
2022-11-07T20:52:15.779Z,0.00
2022-11-07T20:52:20.536Z,0.00
2022-11-07T20:53:20.597Z,0.00
2022-11-07T20:54:20.514Z,0.00
2022-11-07T20:55:20.508Z,0.00
2022-11-07T20:56:20.498Z,0.00
2022-11-07T20:57:20.478Z,0.00
2022-11-07T20:58:20.478Z,0.00
2022-11-07T20:59:20.688Z,0.00
2022-11-07T21:00:20.449Z,0.00
2022-11-07T21:01:20.516Z,0.00
2022-11-07T21:02:20.436Z,0.00
2022-11-07T21:03:20.578Z,0.00
2022-11-07T21:04:21.192Z,0.00
2022-11-07T21:05:20.380Z,0.00
2022-11-07T21:06:21.311Z,0.00
2022-11-07T21:07:20.352Z,0.00
2022-11-07T21:08:20.343Z,0.00
2022-11-07T21:09:20.329Z,0.00
2022-11-07T21:10:20.312Z,0.00
2022-11-07T21:11:20.307Z,0.00
2022-11-07T21:12:20.302Z,0.00
2022-11-07T21:13:20.273Z,0.00
2022-11-07T21:14:20.254Z,0.00
2022-11-07T21:15:20.249Z,0.00
2022-11-07T21:16:20.244Z,0.00
2022-11-07T21:17:20.224Z,0.00
2022-11-07T21:18:20.204Z,0.00
2022-11-07T21:19:20.215Z,0.00
2022-11-07T21:20:20.167Z,0.00
2022-11-07T21:21:20.221Z,0.00
2022-11-07T21:22:21.576Z,0.00
2022-11-07T21:23:20.294Z,0.00
2022-11-07T21:24:20.124Z,0.00
2022-11-07T21:25:20.116Z,0.00
2022-11-07T21:26:21.068Z,0.00
2022-11-07T21:27:20.087Z,0.00
2022-11-07T21:28:20.087Z,0.00
2022-11-07T21:29:22.050Z,0.00
2022-11-07T21:30:21.055Z,0.00
2022-11-07T21:31:20.038Z,0.00
2022-11-07T21:32:20.016Z,0.00
2022-11-07T21:33:20.079Z,0.00
2022-11-07T21:34:19.999Z,0.00
2022-11-07T21:35:19.979Z,0.00
2022-11-07T21:36:19.989Z,0.00
2022-11-07T21:37:20.915Z,0.00
2022-11-07T21:38:20.038Z,0.00
2022-11-07T21:39:19.929Z,0.00
2022-11-07T21:40:19.910Z,0.00
2022-11-07T21:41:19.903Z,0.00
2022-11-07T21:42:19.891Z,0.00
2022-11-07T21:43:20.090Z,0.00
2022-11-07T21:44:19.867Z,0.00
2022-11-07T21:45:19.857Z,0.00
2022-11-07T21:46:19.838Z,0.00
2022-11-07T21:47:19.821Z,0.00
2022-11-07T21:48:19.811Z,0.00
2022-11-07T21:49:19.794Z,0.00
2022-11-07T21:50:42.874Z,0.00
2022-11-07T21:51:20.763Z,0.00
2022-11-07T21:52:19.752Z,0.00
2022-11-07T21:53:20.026Z,0.00
2022-11-07T21:54:19.738Z,0.00
2022-11-07T21:55:20.663Z,0.00
2022-11-07T21:56:19.703Z,0.00
2022-11-07T21:57:19.703Z,0.00
2022-11-07T21:58:19.690Z,0.00
2022-11-07T21:59:19.680Z,0.00
2022-11-07T22:00:20.446Z,0.00
2022-11-07T22:01:19.815Z,0.00
2022-11-07T22:02:20.611Z,0.00
2022-11-07T22:03:31.998Z,0.00
2022-11-07T22:04:20.599Z,0.00
2022-11-07T22:05:19.586Z,0.00
2022-11-07T22:06:19.588Z,0.00
2022-11-07T22:07:19.605Z,0.00
2022-11-07T22:08:23.546Z,0.00
2022-11-07T22:09:19.536Z,0.00
2022-11-07T22:10:19.516Z,0.00
2022-11-07T22:11:19.510Z,0.00
2022-11-07T22:12:19.507Z,0.00
2022-11-07T22:13:19.677Z,0.00
2022-11-07T22:14:19.467Z,0.00